createdAt,value
2023-04-04T00:00:39.174Z,102417.09
2023-04-04T00:03:06.722Z,102419.72
2023-04-04T00:05:35.479Z,102413.59
2023-04-04T00:08:04.099Z,102411.31
2023-04-04T00:10:31.274Z,102408.97
2023-04-04T00:12:58.936Z,102407.50
2023-04-04T00:15:26.283Z,102406.59
2023-04-04T00:17:53.450Z,102404.13
2023-04-04T00:20:20.484Z,102402.75
2023-04-04T00:22:47.541Z,102404.03
2023-04-04T00:25:15.207Z,102396.34
2023-04-04T00:27:42.324Z,102396.34
2023-04-04T00:30:10.676Z,102400.84
2023-04-04T00:32:37.752Z,102394.66
2023-04-04T00:35:05.329Z,102391.81
2023-04-04T00:37:32.750Z,102390.13
2023-04-04T00:39:59.888Z,102394.03
2023-04-04T00:42:27.738Z,102401.66
2023-04-04T00:44:54.986Z,102403.31
2023-04-04T00:47:24.616Z,102395.22
2023-04-04T00:49:52.463Z,102400.34
2023-04-04T00:52:19.554Z,102396.50
2023-04-04T00:54:46.709Z,102406.81
2023-04-04T00:57:14.070Z,102399.31
2023-04-04T00:59:41.458Z,102396.66
2023-04-04T01:02:08.829Z,102385.63
2023-04-04T01:04:37.019Z,102384.22
2023-04-04T01:07:04.536Z,102383.25
2023-04-04T01:09:33.788Z,102386.28
2023-04-04T01:12:02.303Z,102385.41
2023-04-04T01:14:29.467Z,102384.41
2023-04-04T01:16:56.734Z,102384.94
2023-04-04T01:19:36.990Z,102377.84
2023-04-04T01:22:06.041Z,102375.19
2023-04-04T01:24:39.147Z,102382.41
2023-04-04T01:27:06.504Z,102374.84
2023-04-04T01:29:33.614Z,102368.97
2023-04-04T01:32:53.330Z,102370.19
2023-04-04T01:36:05.094Z,102365.25
2023-04-04T01:39:13.219Z,102370.72
2023-04-04T01:41:40.897Z,102364.84
2023-04-04T01:44:10.034Z,102360.44
2023-04-04T01:46:37.276Z,102360.28
2023-04-04T01:49:04.401Z,102359.47
2023-04-04T01:51:32.085Z,102351.78
2023-04-04T01:53:59.220Z,102356.75
2023-04-04T01:56:26.289Z,102355.25
2023-04-04T01:58:53.658Z,102354.34
2023-04-04T02:01:21.264Z,102351.66
2023-04-04T02:03:48.588Z,102350.59
2023-04-04T02:06:15.721Z,102347.03
2023-04-04T02:08:43.240Z,102356.34
2023-04-04T02:11:10.408Z,102345.63
2023-04-04T02:13:43.374Z,102343.91
2023-04-04T02:16:11.188Z,102342.22
2023-04-04T02:18:38.703Z,102337.69
2023-04-04T02:21:06.014Z,102347.81
2023-04-04T02:23:33.330Z,102336.44
2023-04-04T02:26:00.585Z,102339.63
2023-04-04T02:28:29.075Z,102341.25
2023-04-04T02:30:56.633Z,102335.47
2023-04-04T02:33:23.740Z,102333.59
2023-04-04T02:35:51.319Z,102334.63
2023-04-04T02:38:18.423Z,102338.56
2023-04-04T02:40:48.313Z,102340.53
2023-04-04T02:43:15.576Z,102341.94
2023-04-04T02:45:42.655Z,102336.41
2023-04-04T02:48:10.890Z,102333.31
2023-04-04T02:50:39.463Z,102335.38
2023-04-04T02:53:07.068Z,102328.84
2023-04-04T02:55:34.149Z,102327.53
2023-04-04T02:58:01.847Z,102325.78
2023-04-04T03:00:29.099Z,102327.22
2023-04-04T03:02:57.757Z,102328.66
2023-04-04T03:05:26.903Z,102327.22
2023-04-04T03:07:58.261Z,102326.00
2023-04-04T03:10:29.946Z,102321.06
2023-04-04T03:12:58.140Z,102315.19
2023-04-04T03:15:26.531Z,102317.09
2023-04-04T03:17:54.563Z,102316.41
2023-04-04T03:20:21.993Z,102314.31
2023-04-04T03:22:49.362Z,102316.59
2023-04-04T03:25:17.061Z,102309.41
2023-04-04T03:27:44.337Z,102303.19
2023-04-04T03:30:12.376Z,102306.94
2023-04-04T03:32:40.282Z,102305.53
2023-04-04T03:35:08.292Z,102296.91
2023-04-04T03:37:35.476Z,102307.59
2023-04-04T03:40:02.584Z,102298.06
2023-04-04T03:42:34.934Z,102299.72
2023-04-04T03:45:02.805Z,102292.03
2023-04-04T03:47:30.119Z,102293.09
2023-04-04T03:49:57.525Z,102293.34
2023-04-04T03:52:24.621Z,102283.38
2023-04-04T03:54:51.765Z,102282.53
2023-04-04T03:57:18.895Z,102274.41
2023-04-04T03:59:46.169Z,102275.09
2023-04-04T04:02:13.360Z,102272.50
2023-04-04T04:04:40.770Z,102275.09
2023-04-04T04:07:08.566Z,102273.59
2023-04-04T04:09:36.545Z,102273.69
2023-04-04T04:12:03.785Z,102266.84
2023-04-04T04:14:30.853Z,102274.47
2023-04-04T04:16:57.999Z,102274.75
2023-04-04T04:19:25.275Z,102275.72
2023-04-04T04:21:52.450Z,102277.44
2023-04-04T04:24:19.521Z,102285.16
2023-04-04T04:26:46.618Z,102277.47
2023-04-04T04:29:13.704Z,102274.09
2023-04-04T04:31:41.653Z,102284.09
2023-04-04T04:34:09.389Z,102276.69
2023-04-04T04:36:36.955Z,102274.34
2023-04-04T04:39:04.124Z,102276.44
2023-04-04T04:41:32.796Z,102281.41
2023-04-04T04:43:59.867Z,102281.47
2023-04-04T04:46:26.995Z,102282.31
2023-04-04T04:48:54.129Z,102279.75
2023-04-04T04:51:21.794Z,102285.00
2023-04-04T04:53:48.849Z,102282.19
2023-04-04T04:56:15.917Z,102285.97
2023-04-04T04:58:45.307Z,102290.91
2023-04-04T05:01:12.399Z,102288.69
2023-04-04T05:03:39.535Z,102293.25
2023-04-04T05:06:06.859Z,102286.63
2023-04-04T05:08:33.942Z,102292.91
2023-04-04T05:11:01.552Z,102286.38
2023-04-04T05:13:32.059Z,102297.81
2023-04-04T05:15:59.231Z,102290.78
2023-04-04T05:18:27.567Z,102295.03
2023-04-04T05:20:55.670Z,102291.38
2023-04-04T05:23:24.355Z,102300.81
2023-04-04T05:25:53.340Z,102297.06
2023-04-04T05:28:21.531Z,102300.97
2023-04-04T05:30:48.697Z,102302.25
2023-04-04T05:33:15.795Z,102311.94
2023-04-04T05:35:43.341Z,102314.69
2023-04-04T05:38:10.708Z,102301.81
2023-04-04T05:40:38.012Z,102307.78
2023-04-04T05:43:05.363Z,102306.13
2023-04-04T05:45:32.653Z,102301.97
2023-04-04T05:47:59.748Z,102306.25
2023-04-04T05:50:27.043Z,102306.34
2023-04-04T05:52:55.950Z,102306.94
2023-04-04T05:55:23.326Z,102305.88
2023-04-04T05:57:53.645Z,102310.81
2023-04-04T06:00:20.787Z,102310.56
2023-04-04T06:02:48.378Z,102312.50
2023-04-04T06:05:15.988Z,102311.78
2023-04-04T06:07:43.272Z,102312.00
2023-04-04T06:10:11.238Z,102313.34
2023-04-04T06:12:38.644Z,102316.16
2023-04-04T06:15:08.210Z,102315.25
2023-04-04T06:17:36.277Z,102310.06
2023-04-04T06:20:05.121Z,102321.38
2023-04-04T06:22:32.332Z,102317.16
2023-04-04T06:24:59.370Z,102314.81
2023-04-04T06:27:27.042Z,102321.19
2023-04-04T06:29:55.657Z,102326.53
2023-04-04T06:32:22.835Z,102328.06
2023-04-04T06:34:49.998Z,102318.41
2023-04-04T06:37:17.268Z,102324.31
2023-04-04T06:39:44.321Z,102323.84
2023-04-04T06:42:12.392Z,102320.03
2023-04-04T06:44:39.481Z,102326.66
2023-04-04T06:47:06.919Z,102326.00
2023-04-04T06:49:33.969Z,102323.19
2023-04-04T06:52:01.358Z,102320.38
2023-04-04T06:54:28.485Z,102317.75
2023-04-04T06:56:55.688Z,102322.44
2023-04-04T06:59:23.082Z,102309.47
2023-04-04T07:01:50.366Z,102314.44
2023-04-04T07:04:20.192Z,102313.53
2023-04-04T07:06:47.277Z,102314.19
2023-04-04T07:09:25.906Z,102314.31
2023-04-04T07:11:56.429Z,102304.88
2023-04-04T07:14:25.251Z,102297.16
2023-04-04T07:16:53.370Z,102295.94
2023-04-04T07:19:20.753Z,102297.81
2023-04-04T07:21:47.876Z,102299.13
2023-04-04T07:24:17.488Z,102290.09
2023-04-04T07:26:44.616Z,102290.97
2023-04-04T07:29:14.897Z,102290.91
2023-04-04T07:31:41.977Z,102290.09
2023-04-04T07:34:09.264Z,102287.88
2023-04-04T07:36:39.723Z,102282.28
2023-04-04T07:39:07.128Z,102282.78
2023-04-04T07:41:37.458Z,102280.34
2023-04-04T07:44:04.793Z,102289.91
2023-04-04T07:46:32.122Z,102284.56
2023-04-04T07:48:59.646Z,102274.53
2023-04-04T07:51:32.531Z,102279.06
2023-04-04T07:53:59.836Z,102275.88
2023-04-04T07:56:27.130Z,102280.63
2023-04-04T07:58:54.441Z,102278.41
2023-04-04T08:01:21.886Z,102272.06
2023-04-04T08:03:50.244Z,102279.63
2023-04-04T08:06:17.502Z,102275.78
2023-04-04T08:08:47.080Z,102273.88
2023-04-04T08:11:14.502Z,102264.94
2023-04-04T08:13:41.655Z,102274.34
2023-04-04T08:16:08.802Z,102267.66
2023-04-04T08:18:35.874Z,102264.94
2023-04-04T08:21:03.125Z,102271.09
2023-04-04T08:23:30.599Z,102263.44
2023-04-04T08:26:00.065Z,102264.56
2023-04-04T08:28:27.712Z,102256.03
2023-04-04T08:30:55.241Z,102254.94
2023-04-04T08:33:27.084Z,102254.06
2023-04-04T08:35:58.794Z,102253.00
2023-04-04T08:38:25.803Z,102260.19
2023-04-04T08:40:53.583Z,102256.03
2023-04-04T08:43:24.482Z,102258.03
2023-04-04T08:45:54.430Z,102249.38
2023-04-04T08:48:25.572Z,102259.81
2023-04-04T08:50:57.956Z,102253.16
2023-04-04T08:53:26.844Z,102250.81
2023-04-04T08:55:57.965Z,102246.94
2023-04-04T08:58:25.120Z,102248.53
2023-04-04T09:00:56.436Z,102246.34
2023-04-04T09:03:31.189Z,102243.34
2023-04-04T09:05:58.876Z,102233.97
2023-04-04T09:08:26.673Z,102235.19
2023-04-04T09:10:54.023Z,102227.63
2023-04-04T09:13:21.836Z,102229.81
2023-04-04T09:15:54.223Z,102229.78
2023-04-04T09:18:21.765Z,102233.84
2023-04-04T09:20:49.665Z,102228.75
2023-04-04T09:23:21.418Z,102229.88
2023-04-04T09:28:25.452Z,102226.41
2023-04-04T09:30:53.156Z,102231.13
2023-04-04T09:33:26.051Z,102223.06
2023-04-04T09:36:11.526Z,102213.78
2023-04-04T09:38:44.830Z,102211.81
2023-04-04T09:41:16.384Z,102216.34
2023-04-04T09:43:48.468Z,102222.91
2023-04-04T09:46:19.147Z,102216.28
2023-04-04T09:48:53.150Z,102218.56
2023-04-04T09:51:20.276Z,102217.75
2023-04-04T09:53:51.824Z,102216.63
2023-04-04T09:56:20.105Z,102211.72
2023-04-04T09:59:00.291Z,102214.50
2023-04-04T10:01:31.085Z,102206.44
2023-04-04T10:03:59.166Z,102206.22
2023-04-04T10:06:27.969Z,102203.84
2023-04-04T10:08:58.327Z,102207.28
2023-04-04T10:11:36.031Z,102208.97
2023-04-04T10:14:06.737Z,102199.28
2023-04-04T10:16:38.565Z,102211.13
2023-04-04T10:19:10.409Z,102204.63
2023-04-04T10:21:37.662Z,102216.97
2023-04-04T10:24:09.754Z,102201.19
2023-04-04T10:26:37.409Z,102202.88
2023-04-04T10:29:05.778Z,102198.44
2023-04-04T10:31:38.259Z,102197.06
2023-04-04T10:34:24.074Z,102199.84
2023-04-04T10:36:58.260Z,102188.63
2023-04-04T10:39:32.593Z,102191.19
2023-04-04T10:42:01.536Z,102186.84
2023-04-04T10:44:40.286Z,102190.63
2023-04-04T10:47:21.946Z,102179.28
2023-04-04T10:49:52.774Z,102184.41
2023-04-04T10:52:27.295Z,102179.81
2023-04-04T10:55:02.370Z,102175.09
2023-04-04T10:57:30.542Z,102164.28
2023-04-04T11:00:08.250Z,102170.44
2023-04-04T11:02:59.951Z,102174.72
2023-04-04T11:06:00.271Z,102170.19
2023-04-04T11:08:29.134Z,102157.81
2023-04-04T11:10:57.706Z,102158.81
2023-04-04T11:13:35.651Z,102148.50
2023-04-04T11:16:15.343Z,102150.41
2023-04-04T11:18:42.416Z,102154.56
2023-04-04T11:21:20.251Z,102143.47
2023-04-04T11:23:50.245Z,102145.34
2023-04-04T11:26:27.842Z,102133.19
2023-04-04T11:29:02.784Z,102131.84
2023-04-04T11:31:40.949Z,102134.78
2023-04-04T11:34:11.042Z,102142.16
2023-04-04T11:36:38.178Z,102140.53
2023-04-04T11:39:29.255Z,102127.00
2023-04-04T11:42:15.888Z,102129.44
2023-04-04T11:45:03.129Z,102123.03
2023-04-04T11:47:31.603Z,102123.38
2023-04-04T11:50:08.141Z,102113.41
2023-04-04T11:52:36.090Z,102113.78
2023-04-04T11:55:14.004Z,102107.38
2023-04-04T11:57:42.498Z,102105.72
2023-04-04T12:00:12.190Z,102102.44
2023-04-04T12:02:40.530Z,102104.94
2023-04-04T12:05:08.639Z,102097.09
2023-04-04T12:07:37.517Z,102095.13
2023-04-04T12:10:05.958Z,102098.63
2023-04-04T12:12:38.803Z,102094.00
2023-04-04T12:15:17.044Z,102092.66
2023-04-04T12:17:45.836Z,102085.84
2023-04-04T12:20:16.569Z,102082.25
2023-04-04T12:22:45.476Z,102080.00
2023-04-04T12:25:12.741Z,102079.31
2023-04-04T12:27:41.786Z,102068.78
2023-04-04T12:30:16.037Z,102069.94
2023-04-04T12:32:48.493Z,102064.34
2023-04-04T12:35:16.006Z,102074.34
2023-04-04T12:38:10.569Z,102073.47
2023-04-04T12:40:39.539Z,102060.34
2023-04-04T12:43:09.127Z,102059.56
2023-04-04T12:45:43.993Z,102059.13
2023-04-04T12:48:14.845Z,102054.41
2023-04-04T12:50:59.802Z,102043.69
2023-04-04T12:53:32.847Z,102037.16
2023-04-04T12:56:05.218Z,102032.16
2023-04-04T12:58:34.925Z,102021.50
2023-04-04T13:01:04.124Z,102026.41
2023-04-04T13:03:33.751Z,102018.81
2023-04-04T13:06:00.892Z,102019.09
2023-04-04T13:08:28.408Z,102019.22
2023-04-04T13:11:06.836Z,102029.69
2023-04-04T13:13:40.032Z,102021.41
2023-04-04T13:16:10.417Z,102024.91
2023-04-04T13:18:48.285Z,102003.72
2023-04-04T13:21:15.429Z,101993.22
2023-04-04T13:23:42.631Z,101989.78
2023-04-04T13:26:10.796Z,101989.88
2023-04-04T13:28:38.610Z,101995.94
2023-04-04T13:31:11.618Z,101988.44
2023-04-04T13:33:40.107Z,101986.63
2023-04-04T13:36:07.747Z,101992.41
2023-04-04T13:38:35.130Z,101981.84
2023-04-04T13:41:02.313Z,101986.03
2023-04-04T13:43:29.513Z,101979.72
2023-04-04T13:45:57.218Z,101979.38
2023-04-04T13:48:24.347Z,101988.88
2023-04-04T13:50:52.794Z,101977.34
2023-04-04T13:53:20.960Z,101981.56
2023-04-04T13:56:13.136Z,101974.09
2023-04-04T13:58:35.268Z,101970.25
2023-04-04T14:01:04.507Z,101966.75
2023-04-04T14:03:32.610Z,101959.03
2023-04-04T14:06:06.395Z,101963.94
2023-04-04T14:08:40.594Z,101947.31
2023-04-04T14:11:07.829Z,101957.00
2023-04-04T14:13:38.009Z,101957.88
2023-04-04T14:16:09.477Z,101949.75
2023-04-04T14:18:37.050Z,101949.00
2023-04-04T14:21:05.425Z,101946.59
2023-04-04T14:23:33.689Z,101950.69
2023-04-04T14:26:01.096Z,101949.94
2023-04-04T14:28:28.878Z,101946.38
2023-04-04T14:30:56.273Z,101942.41
2023-04-04T14:33:23.595Z,101958.50
2023-04-04T14:35:51.164Z,101947.28
2023-04-04T14:38:18.351Z,101941.84
2023-04-04T14:40:45.441Z,101939.22
2023-04-04T14:43:12.511Z,101940.06
2023-04-04T14:45:40.098Z,101917.63
2023-04-04T14:48:07.803Z,101941.25
2023-04-04T14:50:34.985Z,101939.31
2023-04-04T14:53:02.068Z,101932.19
2023-04-04T14:55:32.388Z,101927.75
2023-04-04T14:58:02.539Z,101935.03
2023-04-04T15:00:31.432Z,101926.41
2023-04-04T15:02:58.593Z,101925.56
2023-04-04T15:05:26.646Z,101924.22
2023-04-04T15:07:53.985Z,101925.41
2023-04-04T15:10:21.989Z,101925.84
2023-04-04T15:12:49.543Z,101925.63
2023-04-04T15:15:18.893Z,101920.25
2023-04-04T15:17:46.252Z,101922.59
2023-04-04T15:20:13.782Z,101917.66
2023-04-04T15:22:41.591Z,101920.59
2023-04-04T15:25:09.945Z,101918.28
2023-04-04T15:27:39.697Z,101910.81
2023-04-04T15:30:12.701Z,101918.16
2023-04-04T15:32:39.899Z,101912.13
2023-04-04T15:35:18.839Z,101915.03
2023-04-04T15:37:46.900Z,101908.13
2023-04-04T15:40:14.340Z,101907.22
2023-04-04T15:42:41.766Z,101908.88
2023-04-04T15:45:10.196Z,101899.72
2023-04-04T15:47:37.860Z,101897.66
2023-04-04T15:50:06.843Z,101903.41
2023-04-04T15:52:34.069Z,101896.13
2023-04-04T15:55:01.146Z,101896.66
2023-04-04T15:57:28.351Z,101898.25
2023-04-04T15:59:55.700Z,101895.78
2023-04-04T16:02:23.028Z,101896.25
2023-04-04T16:04:50.435Z,101896.84
2023-04-04T16:07:17.754Z,101898.28
2023-04-04T16:09:45.088Z,101896.50
2023-04-04T16:12:12.249Z,101893.88
2023-04-04T16:14:39.336Z,101891.25
2023-04-04T16:17:06.398Z,101900.13
2023-04-04T16:19:34.484Z,101891.47
2023-04-04T16:22:01.643Z,101886.94
2023-04-04T16:24:28.827Z,101890.91
2023-04-04T16:26:56.348Z,101898.88
2023-04-04T16:29:23.737Z,101888.00
2023-04-04T16:31:50.966Z,101888.22
2023-04-04T16:34:18.115Z,101880.59
2023-04-04T16:36:45.324Z,101881.34
2023-04-04T16:39:12.463Z,101882.50
2023-04-04T16:41:42.312Z,101885.91
2023-04-04T16:44:09.389Z,101884.66
2023-04-04T16:46:37.006Z,101880.69
2023-04-04T16:49:04.297Z,101876.69
2023-04-04T16:51:31.982Z,101874.13
2023-04-04T16:53:59.258Z,101875.75
2023-04-04T16:56:26.390Z,101868.88
2023-04-04T16:58:53.768Z,101870.22
2023-04-04T17:01:22.592Z,101878.06
2023-04-04T17:03:50.016Z,101872.72
2023-04-04T17:06:17.074Z,101876.72
2023-04-04T17:08:46.477Z,101869.28
2023-04-04T17:11:13.887Z,101870.25
2023-04-04T17:13:41.059Z,101874.22
2023-04-04T17:16:08.565Z,101861.59
2023-04-04T17:18:36.033Z,101866.69
2023-04-04T17:21:03.392Z,101863.59
2023-04-04T17:23:30.586Z,101860.81
2023-04-04T17:25:57.658Z,101863.94
2023-04-04T17:28:24.777Z,101867.19
2023-04-04T17:30:52.401Z,101858.75
2023-04-04T17:33:21.074Z,101867.59
2023-04-04T17:35:48.288Z,101867.34
2023-04-04T17:38:15.454Z,101866.81
2023-04-04T17:40:42.625Z,101863.13
2023-04-04T17:43:09.722Z,101863.22
2023-04-04T17:45:37.349Z,101867.50
2023-04-04T17:48:04.747Z,101860.28
2023-04-04T17:50:31.778Z,101864.19
2023-04-04T17:53:04.368Z,101858.13
2023-04-04T17:55:32.382Z,101853.91
2023-04-04T17:57:59.436Z,101866.72
2023-04-04T18:00:26.706Z,101864.72
2023-04-04T18:02:53.792Z,101866.03
2023-04-04T18:05:21.260Z,101865.28
2023-04-04T18:07:48.301Z,101862.31
2023-04-04T18:10:15.522Z,101869.81
2023-04-04T18:12:44.285Z,101867.13
2023-04-04T18:15:12.426Z,101870.09
2023-04-04T18:17:40.153Z,101874.16
2023-04-04T18:20:08.436Z,101875.19
2023-04-04T18:22:35.681Z,101869.84
2023-04-04T18:25:03.204Z,101875.28
2023-04-04T18:27:31.007Z,101878.47
2023-04-04T18:29:58.084Z,101870.25
2023-04-04T18:32:26.488Z,101870.75
2023-04-04T18:34:53.722Z,101876.72
2023-04-04T18:37:20.844Z,101879.06
2023-04-04T18:39:47.931Z,101870.22
2023-04-04T18:42:18.164Z,101878.31
2023-04-04T18:44:45.397Z,101877.75
2023-04-04T18:47:14.103Z,101875.22
2023-04-04T18:49:41.702Z,101870.44
2023-04-04T18:52:08.770Z,101873.03
2023-04-04T18:54:36.559Z,101886.25
2023-04-04T18:57:04.092Z,101880.22
2023-04-04T18:59:31.441Z,101881.72
2023-04-04T19:02:00.732Z,101880.00
2023-04-04T19:04:32.444Z,101878.19
2023-04-04T19:07:06.661Z,101876.97
2023-04-04T19:09:36.011Z,101874.91
2023-04-04T19:12:03.925Z,101876.25
2023-04-04T19:14:31.113Z,101883.50
2023-04-04T19:17:00.244Z,101888.00
2023-04-04T19:19:27.367Z,101889.16
2023-04-04T19:21:54.567Z,101890.34
2023-04-04T19:24:22.064Z,101896.47
2023-04-04T19:26:49.217Z,101889.72
2023-04-04T19:29:21.437Z,101887.13
2023-04-04T19:31:48.802Z,101880.94
2023-04-04T19:34:16.235Z,101883.00
2023-04-04T19:36:43.792Z,101884.56
2023-04-04T19:39:11.124Z,101877.31
2023-04-04T19:41:40.930Z,101875.97
2023-04-04T19:44:20.517Z,101884.31
2023-04-04T19:46:48.314Z,101886.56
2023-04-04T19:49:16.576Z,101879.41
2023-04-04T19:51:58.745Z,101882.84
2023-04-04T19:54:34.688Z,101884.44
2023-04-04T19:57:07.232Z,101890.69
2023-04-04T20:00:10.812Z,101883.78
2023-04-04T20:02:53.664Z,101881.50
2023-04-04T20:05:32.098Z,101884.75
2023-04-04T20:08:01.275Z,101879.84
2023-04-04T20:10:41.826Z,101882.50
2023-04-04T20:13:09.912Z,101882.75
2023-04-04T20:16:01.982Z,101875.56
2023-04-04T20:18:32.723Z,101882.50
2023-04-04T20:21:23.445Z,101877.22
2023-04-04T20:23:59.365Z,101878.97
2023-04-04T20:26:38.470Z,101875.88
2023-04-04T20:29:16.953Z,101870.22
2023-04-04T20:31:52.076Z,101879.03
2023-04-04T20:34:45.870Z,101874.84
2023-04-04T20:37:23.756Z,101873.06
2023-04-04T20:39:59.228Z,101864.78
2023-04-04T20:42:30.335Z,101864.25
2023-04-04T20:45:12.669Z,101876.94
2023-04-04T20:47:55.108Z,101873.34
2023-04-04T20:50:27.060Z,101881.53
2023-04-04T20:53:00.270Z,101881.53
2023-04-04T20:55:31.047Z,101883.66
2023-04-04T20:58:30.787Z,101873.81
2023-04-04T21:01:00.693Z,101870.00
2023-04-04T21:03:36.515Z,101882.41
2023-04-04T21:06:16.508Z,101877.63
2023-04-04T21:08:49.355Z,101884.81
2023-04-04T21:11:30.204Z,101881.53
2023-04-04T21:13:57.767Z,101879.47
2023-04-04T21:16:27.884Z,101889.91
2023-04-04T21:19:00.312Z,101884.06
2023-04-04T21:21:28.955Z,101879.41
2023-04-04T21:24:00.808Z,101884.91
2023-04-04T21:26:42.035Z,101877.47
2023-04-04T21:29:29.855Z,101882.06
2023-04-04T21:31:58.427Z,101879.19
2023-04-04T21:34:27.408Z,101882.19
2023-04-04T21:37:02.816Z,101875.72
2023-04-04T21:39:31.038Z,101869.19
2023-04-04T21:42:03.280Z,101879.94
2023-04-04T21:44:32.072Z,101883.47
2023-04-04T21:46:59.134Z,101879.91
2023-04-04T21:49:26.392Z,101880.53
2023-04-04T21:51:55.618Z,101878.56
2023-04-04T21:54:23.957Z,101875.56
2023-04-04T21:56:51.020Z,101873.56
2023-04-04T21:59:18.149Z,101870.59
2023-04-04T22:01:45.379Z,101873.72
2023-04-04T22:04:12.665Z,101874.44
2023-04-04T22:06:39.909Z,101872.75
2023-04-04T22:09:07.081Z,101872.22
2023-04-04T22:11:34.924Z,101864.97
2023-04-04T22:14:07.301Z,101867.00
2023-04-04T22:16:39.638Z,101865.00
2023-04-04T22:19:07.637Z,101866.81
2023-04-04T22:21:36.865Z,101857.69
2023-04-04T22:24:05.500Z,101857.69
2023-04-04T22:26:33.264Z,101855.09
2023-04-04T22:29:04.110Z,101855.69
2023-04-04T22:31:34.065Z,101845.16
2023-04-04T22:34:03.184Z,101847.72
2023-04-04T22:36:35.187Z,101843.28
2023-04-04T22:39:04.900Z,101844.69
2023-04-04T22:41:32.006Z,101850.78
2023-04-04T22:43:59.073Z,101853.56
2023-04-04T22:46:28.859Z,101857.69
2023-04-04T22:49:05.425Z,101859.50
2023-04-04T22:51:42.933Z,101853.47
2023-04-04T22:54:14.917Z,101845.31
2023-04-04T22:56:42.116Z,101843.91
2023-04-04T22:59:09.406Z,101841.13
2023-04-04T23:01:36.647Z,101838.28
2023-04-04T23:04:03.783Z,101842.88
2023-04-04T23:06:31.328Z,101839.88
2023-04-04T23:08:59.119Z,101840.28
2023-04-04T23:11:27.255Z,101841.78
2023-04-04T23:13:56.919Z,101832.91
2023-04-04T23:16:26.174Z,101834.75
2023-04-04T23:18:53.540Z,101835.22
2023-04-04T23:21:21.839Z,101829.09
2023-04-04T23:23:51.509Z,101824.19
2023-04-04T23:26:18.570Z,101822.66
2023-04-04T23:28:45.647Z,101823.41
2023-04-04T23:31:15.181Z,101822.53
2023-04-04T23:33:42.976Z,101818.50
2023-04-04T23:36:10.315Z,101810.84
2023-04-04T23:38:37.395Z,101809.94
2023-04-04T23:41:04.520Z,101808.97
2023-04-04T23:43:31.557Z,101810.28
2023-04-04T23:46:00.285Z,101809.41
2023-04-04T23:48:27.567Z,101809.78
2023-04-04T23:50:56.449Z,101807.41
2023-04-04T23:53:24.400Z,101801.72
2023-04-04T23:55:51.499Z,101797.03
2023-04-04T23:58:18.621Z,101804.16
